Observation data for Jayton on 04/09/2020      Previous  Date  Next       Current Mesonet Observations  Soil Data  Daily Summary Page  Observations in Plain Language
KJTS 090500Z 33003KT 23/00 A2994 RMK A01 T02260003  RH  023%=      5-min Rain = 0
KJTS 090505Z 30003KT 22/02 A2994 RMK A01 T02200018  RH  027%=      5-min Rain = 0
KJTS 090510Z 26001KT 21/01 A2993 RMK A01 T02090005  RH  026%=      5-min Rain = 0
KJTS 090515Z 31002KT 22/00 A2993 RMK A01 T02170002  RH  024%=      5-min Rain = 0
KJTS 090520Z 33003KT 22/00 A2993 RMK A01 T02180000  RH  024%=      5-min Rain = 0
KJTS 090525Z 34003KT 23/00 A2993 RMK A01 T02290000  RH  022%=      5-min Rain = 0
KJTS 090530Z 29002KT 21/02 A2993 RMK A01 T02130016  RH  027%=      5-min Rain = 0
KJTS 090535Z 29003KT 19/02 A2993 RMK A01 T01940023  RH  033%=      5-min Rain = 0
KJTS 090540Z 29003KT 19/02 A2993 RMK A01 T01930018  RH  032%=      5-min Rain = 0
KJTS 090545Z 30002KT 20/02 A2993 RMK A01 T01950018  RH  031%=      5-min Rain = 0
KJTS 090550Z 29004KT 19/02 A2993 RMK A01 T01920022  RH  033%=      5-min Rain = 0
KJTS 090555Z 30004KT 19/02 A2993 RMK A01 T01890022  RH  033%=      5-min Rain = 0
KJTS 090600Z 29005KT 19/02 A2993 RMK A01 T01890020  RH  033%=      5-min Rain = 0
KJTS 090605Z 30004KT 18/03 A2993 RMK A01 T01840025  RH  035%=      5-min Rain = 0
KJTS 090610Z 30005KT 18/03 A2993 RMK A01 T01800032  RH  038%=      5-min Rain = 0
KJTS 090615Z 31005KT 18/03 A2993 RMK A01 T01770032  RH  039%=      5-min Rain = 0
KJTS 090620Z 32005KT 18/03 A2993 RMK A01 T01820027  RH  036%=      5-min Rain = 0
KJTS 090625Z 32005KT 19/02 A2993 RMK A01 T01870024  RH  034%=      5-min Rain = 0
KJTS 090630Z 30005KT 18/03 A2993 RMK A01 T01820031  RH  037%=      5-min Rain = 0
KJTS 090635Z 30005KT 18/03 A2993 RMK A01 T01810030  RH  037%=      5-min Rain = 0
KJTS 090640Z 31005KT 18/03 A2993 RMK A01 T01790032  RH  038%=      5-min Rain = 0
KJTS 090645Z 31004KT 18/03 A2992 RMK A01 T01790028  RH  037%=      5-min Rain = 0
KJTS 090650Z 31004KT 18/03 A2993 RMK A01 T01800028  RH  037%=      5-min Rain = 0
KJTS 090655Z 32005KT 18/03 A2993 RMK A01 T01770032  RH  039%=      5-min Rain = 0
KJTS 090700Z 33004KT 18/03 A2992 RMK A01 T01770031  RH  038%=      5-min Rain = 0
KJTS 090705Z 31005KT 18/03 A2992 RMK A01 T01760030  RH  038%=      5-min Rain = 0
KJTS 090710Z 31004KT 17/03 A2992 RMK A01 T01740029  RH  038%=      5-min Rain = 0
KJTS 090715Z 35007G14KT 17/03 A2992 RMK A01 T01730032  RH  039%=      5-min Rain = 0
KJTS 090720Z 01006KT 18/03 A2992 RMK A01 T01810030  RH  037%=      5-min Rain = 0
KJTS 090725Z 03007KT 18/03 A2993 RMK A01 T01770033  RH  039%=      5-min Rain = 0
KJTS 090730Z 01007KT 17/03 A2993 RMK A01 T01740034  RH  040%=      5-min Rain = 0
KJTS 090735Z 02006KT 17/04 A2993 RMK A01 T01710036  RH  041%=      5-min Rain = 0
KJTS 090740Z 02006KT 17/04 A2993 RMK A01 T01700036  RH  042%=      5-min Rain = 0
KJTS 090745Z 02006KT 17/03 A2992 RMK A01 T01730034  RH  040%=      5-min Rain = 0
KJTS 090750Z 03008KT 17/04 A2993 RMK A01 T01710035  RH  041%=      5-min Rain = 0
KJTS 090755Z 03007KT 17/03 A2993 RMK A01 T01740032  RH  039%=      5-min Rain = 0
KJTS 090800Z 03007KT 18/03 A2993 RMK A01 T01750033  RH  039%=      5-min Rain = 0
KJTS 090805Z 03009KT 18/04 A2993 RMK A01 T01780036  RH  040%=      5-min Rain = 0
KJTS 090810Z 03008KT 18/04 A2993 RMK A01 T01820038  RH  039%=      5-min Rain = 0
KJTS 090815Z 04007KT 18/04 A2993 RMK A01 T01790041  RH  041%=      5-min Rain = 0
KJTS 090820Z 04007KT 18/04 A2993 RMK A01 T01750044  RH  043%=      5-min Rain = 0
KJTS 090825Z 04007KT 17/05 A2993 RMK A01 T01710046  RH  044%=      5-min Rain = 0
KJTS 090830Z 04008KT 17/05 A2993 RMK A01 T01690049  RH  046%=      5-min Rain = 0
KJTS 090835Z 05007KT 17/05 A2993 RMK A01 T01670052  RH  048%=      5-min Rain = 0
KJTS 090840Z 05007KT 17/05 A2993 RMK A01 T01660054  RH  049%=      5-min Rain = 0
KJTS 090845Z 04007KT 17/06 A2993 RMK A01 T01650056  RH  050%=      5-min Rain = 0
KJTS 090850Z 03008KT 17/06 A2993 RMK A01 T01660058  RH  050%=      5-min Rain = 0
KJTS 090855Z 03008KT 17/06 A2993 RMK A01 T01670061  RH  051%=      5-min Rain = 0
KJTS 090900Z 04007KT 17/06 A2993 RMK A01 T01650064  RH  053%=      5-min Rain = 0
KJTS 090905Z 04007KT 16/07 A2993 RMK A01 T01640068  RH  054%=      5-min Rain = 0
KJTS 090910Z 04007KT 16/07 A2993 RMK A01 T01620070  RH  056%=      5-min Rain = 0
KJTS 090915Z 04006KT 16/07 A2993 RMK A01 T01620071  RH  056%=      5-min Rain = 0
KJTS 090920Z 04005KT 16/07 A2993 RMK A01 T01600071  RH  057%=      5-min Rain = 0
KJTS 090925Z 04006KT 16/07 A2993 RMK A01 T01550071  RH  059%=      5-min Rain = 0
KJTS 090930Z 04006KT 16/07 A2993 RMK A01 T01580072  RH  058%=      5-min Rain = 0
KJTS 090935Z 05006KT 16/07 A2993 RMK A01 T01580072  RH  058%=      5-min Rain = 0
KJTS 090940Z 05007KT 16/07 A2992 RMK A01 T01570072  RH  059%=      5-min Rain = 0
KJTS 090945Z 05007KT 16/07 A2992 RMK A01 T01570073  RH  059%=      5-min Rain = 0
KJTS 090950Z 04006KT 16/07 A2992 RMK A01 T01560073  RH  059%=      5-min Rain = 0
KJTS 090955Z 04006KT 15/07 A2993 RMK A01 T01540073  RH  060%=      5-min Rain = 0
KJTS 091000Z 05006KT 15/07 A2992 RMK A01 T01530074  RH  061%=      5-min Rain = 0
KJTS 091005Z 06006KT 15/08 A2992 RMK A01 T01510075  RH  062%=      5-min Rain = 0
KJTS 091010Z 06006KT 15/08 A2992 RMK A01 T01460075  RH  064%=      5-min Rain = 0
KJTS 091015Z 05006KT 15/08 A2992 RMK A01 T01500076  RH  063%=      5-min Rain = 0
KJTS 091020Z 04004KT 15/08 A2992 RMK A01 T01540077  RH  062%=      5-min Rain = 0
KJTS 091025Z 03005KT 15/08 A2992 RMK A01 T01480076  RH  064%=      5-min Rain = 0
KJTS 091030Z 03005KT 15/08 A2992 RMK A01 T01500077  RH  063%=      5-min Rain = 0
KJTS 091035Z 03005KT 15/08 A2992 RMK A01 T01540076  RH  062%=      5-min Rain = 0
KJTS 091040Z 03006KT 16/08 A2992 RMK A01 T01560076  RH  060%=      5-min Rain = 0
KJTS 091045Z 03006KT 16/08 A2992 RMK A01 T01550076  RH  061%=      5-min Rain = 0
KJTS 091050Z 03004KT 15/08 A2992 RMK A01 T01530076  RH  062%=      5-min Rain = 0
KJTS 091055Z 02006KT 15/08 A2992 RMK A01 T01510076  RH  063%=      5-min Rain = 0
KJTS 091100Z 03005KT 15/08 A2992 RMK A01 T01520075  RH  062%=      5-min Rain = 0
KJTS 091105Z 03005KT 15/08 A2993 RMK A01 T01510075  RH  062%=      5-min Rain = 0
KJTS 091110Z 03004KT 15/07 A2993 RMK A01 T01510074  RH  062%=      5-min Rain = 0
KJTS 091115Z 02005KT 15/07 A2993 RMK A01 T01510074  RH  061%=      5-min Rain = 0
KJTS 091120Z 02005KT 15/07 A2993 RMK A01 T01490074  RH  062%=      5-min Rain = 0
KJTS 091125Z 01004KT 14/07 A2993 RMK A01 T01440073  RH  064%=      5-min Rain = 0
KJTS 091130Z 00005KT 14/07 A2993 RMK A01 T01380074  RH  067%=      5-min Rain = 0
KJTS 091135Z 00006KT 14/07 A2994 RMK A01 T01370074  RH  068%=      5-min Rain = 0
KJTS 091140Z 01006KT 14/08 A2994 RMK A01 T01350075  RH  068%=      5-min Rain = 0
KJTS 091145Z 00005KT 14/08 A2994 RMK A01 T01360075  RH  068%=      5-min Rain = 0
KJTS 091150Z 01006KT 14/07 A2994 RMK A01 T01370074  RH  068%=      5-min Rain = 0
KJTS 091155Z 01006KT 14/08 A2994 RMK A01 T01370075  RH  068%=      5-min Rain = 0
KJTS 091200Z 00006KT 14/08 A2994 RMK A01 T01360075  RH  068%=      5-min Rain = 0
KJTS 091205Z 01006KT 14/08 A2994 RMK A01 T01360075  RH  068%=      5-min Rain = 0
KJTS 091210Z 01006KT 14/08 A2994 RMK A01 T01390075  RH  067%=      5-min Rain = 0
KJTS 091215Z 01007KT 14/07 A2994 RMK A01 T01410074  RH  066%=      5-min Rain = 0
KJTS 091220Z 01006KT 14/07 A2994 RMK A01 T01420074  RH  065%=      5-min Rain = 0
KJTS 091225Z 02006KT 14/07 A2994 RMK A01 T01430074  RH  065%=      5-min Rain = 0
KJTS 091230Z 02006KT 14/07 A2994 RMK A01 T01440073  RH  064%=      5-min Rain = 0
KJTS 091235Z 02007KT 14/07 A2994 RMK A01 T01440074  RH  064%=      5-min Rain = 0
KJTS 091240Z 01007KT 14/08 A2995 RMK A01 T01440075  RH  065%=      5-min Rain = 0
KJTS 091245Z 01007KT 14/08 A2995 RMK A01 T01430076  RH  066%=      5-min Rain = 0
KJTS 091250Z 01007KT 14/08 A2995 RMK A01 T01440076  RH  065%=      5-min Rain = 0
KJTS 091255Z 01007KT 15/08 A2995 RMK A01 T01450076  RH  065%=      5-min Rain = 0
KJTS 091300Z 01006KT 14/08 A2996 RMK A01 T01440076  RH  065%=      5-min Rain = 0
KJTS 091305Z 02006KT 15/08 A2996 RMK A01 T01460077  RH  065%=      5-min Rain = 0
KJTS 091310Z 02006KT 15/08 A2997 RMK A01 T01480077  RH  064%=      5-min Rain = 0
KJTS 091315Z 02005KT 15/08 A2997 RMK A01 T01490077  RH  064%=      5-min Rain = 0
KJTS 091320Z 02005KT 15/08 A2997 RMK A01 T01500077  RH  063%=      5-min Rain = 0
KJTS 091325Z 02005KT 15/08 A2997 RMK A01 T01500077  RH  063%=      5-min Rain = 0
KJTS 091330Z 02006KT 15/08 A2997 RMK A01 T01510078  RH  063%=      5-min Rain = 0
KJTS 091335Z 03006KT 15/08 A2998 RMK A01 T01520077  RH  063%=      5-min Rain = 0
KJTS 091340Z 03007KT 15/08 A2998 RMK A01 T01520077  RH  063%=      5-min Rain = 0
KJTS 091345Z 04006KT 15/08 A2998 RMK A01 T01530077  RH  062%=      5-min Rain = 0
KJTS 091350Z 04006KT 15/08 A2998 RMK A01 T01520077  RH  062%=      5-min Rain = 0
KJTS 091355Z 04006KT 15/08 A2998 RMK A01 T01520077  RH  063%=      5-min Rain = 0
KJTS 091400Z 04006KT 15/08 A2998 RMK A01 T01520078  RH  063%=      5-min Rain = 0
KJTS 091405Z 04006KT 15/08 A2999 RMK A01 T01540079  RH  063%=      5-min Rain = 0
KJTS 091410Z 03007KT 15/08 A2999 RMK A01 T01540078  RH  062%=      5-min Rain = 0
KJTS 091415Z 03007KT 16/08 A2999 RMK A01 T01550078  RH  062%=      5-min Rain = 0
KJTS 091420Z 03006G11KT 16/08 A2999 RMK A01 T01560079  RH  062%=      5-min Rain = 0
KJTS 091425Z 03006KT 16/08 A2999 RMK A01 T01570079  RH  062%=      5-min Rain = 0
KJTS 091430Z 03006KT 16/08 A2999 RMK A01 T01570080  RH  062%=      5-min Rain = 0
KJTS 091435Z 03005KT 16/08 A2999 RMK A01 T01570080  RH  062%=      5-min Rain = 0
KJTS 091440Z 02006KT 16/08 A2999 RMK A01 T01570081  RH  062%=      5-min Rain = 0
KJTS 091445Z 02007G12KT 16/08 A2999 RMK A01 T01580078  RH  060%=      5-min Rain = 0
KJTS 091450Z 02008KT 16/08 A30 RMK A01 T01580078  RH  060%=      5-min Rain = 0
KJTS 091455Z 02008G13KT 16/08 A30 RMK A01 T01590078  RH  060%=      5-min Rain = 0
KJTS 091500Z 02009G14KT 16/08 A3001 RMK A01 T01600079  RH  060%=      5-min Rain = 0
KJTS 091505Z 02010KT 16/08 A30 RMK A01 T01610078  RH  060%=      5-min Rain = 0
KJTS 091510Z 02008G14KT 16/08 A30 RMK A01 T01610079  RH  060%=      5-min Rain = 0
KJTS 091515Z 02008G13KT 16/08 A30 RMK A01 T01620080  RH  060%=      5-min Rain = 0
KJTS 091520Z 02009KT 16/08 A3001 RMK A01 T01630080  RH  059%=      5-min Rain = 0
KJTS 091525Z 02008G13KT 16/08 A3001 RMK A01 T01640081  RH  060%=      5-min Rain = 0
KJTS 091530Z 03010G16KT 17/08 A3001 RMK A01 T01650081  RH  059%=      5-min Rain = 0
KJTS 091535Z 03008G14KT 17/08 A3001 RMK A01 T01660082  RH  059%=      5-min Rain = 0
KJTS 091540Z 03010G15KT 17/08 A3002 RMK A01 T01670082  RH  059%=      5-min Rain = 0
KJTS 091545Z 04009G15KT 17/08 A3002 RMK A01 T01690083  RH  059%=      5-min Rain = 0
KJTS 091550Z 05008G14KT 17/08 A3003 RMK A01 T01690084  RH  059%=      5-min Rain = 0
KJTS 091555Z 05009KT 17/08 A3003 RMK A01 T01700082  RH  058%=      5-min Rain = 0
KJTS 091600Z 05009G14KT 17/08 A3003 RMK A01 T01700081  RH  057%=      5-min Rain = 0
KJTS 091605Z 04007KT 17/08 A3004 RMK A01 T01710082  RH  057%=      5-min Rain = 0
KJTS 091610Z 03008G13KT 17/08 A3004 RMK A01 T01720083  RH  058%=      5-min Rain = 0
KJTS 091615Z 05009KT 17/08 A3003 RMK A01 T01720082  RH  057%=      5-min Rain = 0
KJTS 091620Z 04009KT 17/08 A3003 RMK A01 T01730082  RH  057%=      5-min Rain = 0
KJTS 091625Z 04011KT 17/08 A3002 RMK A01 T01720082  RH  057%=      5-min Rain = 0
KJTS 091630Z 03009G14KT 17/09 A3003 RMK A01 T01730085  RH  058%=      5-min Rain = 0
KJTS 091635Z 05009G16KT 17/09 A3003 RMK A01 T01720085  RH  058%=      5-min Rain = 0
KJTS 091640Z 04008KT 17/09 A3003 RMK A01 T01730087  RH  059%=      5-min Rain = 0
KJTS 091645Z 03006KT 17/09 A3004 RMK A01 T01740088  RH  059%=      5-min Rain = 0
KJTS 091650Z 05008KT 18/09 A3003 RMK A01 T01750089  RH  059%=      5-min Rain = 0
KJTS 091655Z 03008KT 18/09 A3003 RMK A01 T01760090  RH  059%=      5-min Rain = 0
KJTS 091700Z 04009KT 18/09 A3002 RMK A01 T01770088  RH  058%=      5-min Rain = 0
KJTS 091705Z 03009KT 18/09 A3003 RMK A01 T01780088  RH  058%=      5-min Rain = 0
KJTS 091710Z 04008G13KT 18/09 A3002 RMK A01 T01790090  RH  058%=      5-min Rain = 0
KJTS 091715Z 05007KT 18/09 A3002 RMK A01 T01810091  RH  057%=      5-min Rain = 0
KJTS 091720Z 05008KT 18/09 A3002 RMK A01 T01830092  RH  057%=      5-min Rain = 0
KJTS 091725Z 04008KT 18/09 A3002 RMK A01 T01820090  RH  057%=      5-min Rain = 0
KJTS 091730Z 05010KT 18/09 A3001 RMK A01 T01810090  RH  057%=      5-min Rain = 0
KJTS 091735Z 05010KT 18/09 A3001 RMK A01 T01810091  RH  057%=      5-min Rain = 0
KJTS 091740Z 05009G14KT 18/09 A3001 RMK A01 T01830092  RH  057%=      5-min Rain = 0
KJTS 091745Z 05009KT 18/09 A3001 RMK A01 T01830090  RH  056%=      5-min Rain = 0
KJTS 091750Z 04009KT 18/09 A3002 RMK A01 T01830091  RH  057%=      5-min Rain = 0
KJTS 091755Z 05009G14KT 18/09 A3002 RMK A01 T01840093  RH  057%=      5-min Rain = 0
KJTS 091800Z 02008KT 18/09 A3003 RMK A01 T01840093  RH  057%=      5-min Rain = 0
KJTS 091805Z 03007KT 19/09 A3003 RMK A01 T01860094  RH  057%=      5-min Rain = 0
KJTS 091810Z 03006KT 19/09 A3003 RMK A01 T01870093  RH  056%=      5-min Rain = 0
KJTS 091815Z 04005G10KT 19/09 A3003 RMK A01 T01860091  RH  056%=      5-min Rain = 0
KJTS 091820Z 03006KT 19/09 A3003 RMK A01 T01870094  RH  057%=      5-min Rain = 0
KJTS 091825Z 07007KT 19/10 A3002 RMK A01 T01880096  RH  057%=      5-min Rain = 0
KJTS 091830Z 05007KT 19/09 A3002 RMK A01 T01880094  RH  056%=      5-min Rain = 0
KJTS 091835Z 07007KT 19/10 A3002 RMK A01 T01900097  RH  057%=      5-min Rain = 0
KJTS 091840Z 08006KT 19/09 A3002 RMK A01 T01890094  RH  056%=      5-min Rain = 0
KJTS 091845Z 22001KT 19/09 A3003 RMK A01 T01900092  RH  055%=      5-min Rain = 0
KJTS 091850Z 08003KT 19/09 A3003 RMK A01 T01920093  RH  054%=      5-min Rain = 0
KJTS 091855Z 07004KT 19/09 A3003 RMK A01 T01920088  RH  053%=      5-min Rain = 0
KJTS 091900Z 08004KT 19/09 A3002 RMK A01 T01930091  RH  053%=      5-min Rain = 0
KJTS 091905Z 08002KT 19/09 A3002 RMK A01 T01940091  RH  053%=      5-min Rain = 0
KJTS 091910Z 05003KT 19/09 A3002 RMK A01 T01940090  RH  052%=      5-min Rain = 0
KJTS 091915Z 07002KT 19/09 A3002 RMK A01 T01940088  RH  052%=      5-min Rain = 0
KJTS 091920Z 08005KT 20/09 A3002 RMK A01 T01950093  RH  053%=      5-min Rain = 0
KJTS 091925Z 07005KT 19/09 A3001 RMK A01 T01940092  RH  053%=      5-min Rain = 0
KJTS 091930Z 05005KT 20/09 A3001 RMK A01 T01950094  RH  054%=      5-min Rain = 0
KJTS 091935Z 03004KT 19/09 A3001 RMK A01 T01930091  RH  053%=      5-min Rain = 0
KJTS 091940Z 02006KT 19/10 A3001 RMK A01 T01940095  RH  054%=      5-min Rain = 0
KJTS 091945Z 02005KT 19/10 A3001 RMK A01 T01940097  RH  055%=      5-min Rain = 0
KJTS 091950Z 03005KT 20/10 A3001 RMK A01 T01950095  RH  054%=      5-min Rain = 0
KJTS 091955Z 04005KT 19/09 A3001 RMK A01 T01940092  RH  053%=      5-min Rain = 0
KJTS 092000Z 05004KT 20/10 A30 RMK A01 T01950095  RH  054%=      5-min Rain = 0
KJTS 092005Z 03004KT 20/09 A30 RMK A01 T01950094  RH  054%=      5-min Rain = 0
KJTS 092010Z 01006KT 19/10 A2999 RMK A01 T01940096  RH  055%=      5-min Rain = 0
KJTS 092015Z 03005KT 20/10 A2999 RMK A01 T01950096  RH  055%=      5-min Rain = 0
KJTS 092020Z 03005KT 20/10 A2999 RMK A01 T01950098  RH  055%=      5-min Rain = 0
KJTS 092025Z 02005KT 20/10 A2999 RMK A01 T01950096  RH  054%=      5-min Rain = 0
KJTS 092030Z 01005KT 20/10 A2999 RMK A01 T01950097  RH  055%=      5-min Rain = 0
KJTS 092035Z 02006KT 20/10 A2998 RMK A01 T01960099  RH  055%=      5-min Rain = 0
KJTS 092040Z 03006KT 20/10 A2998 RMK A01 T01950098  RH  055%=      5-min Rain = 0
KJTS 092045Z 02005KT 19/10 A2998 RMK A01 T01940097  RH  055%=      5-min Rain = 0
KJTS 092050Z 02006KT 19/10 A2998 RMK A01 T01940097  RH  055%=      5-min Rain = 0
KJTS 092055Z 02006KT 19/10 A2997 RMK A01 T01920095  RH  055%=      5-min Rain = 0
KJTS 092100Z 03005KT 19/10 A2997 RMK A01 T01940097  RH  055%=      5-min Rain = 0
KJTS 092105Z 03006KT 19/10 A2997 RMK A01 T01940097  RH  055%=      5-min Rain = 0
KJTS 092110Z 03007KT 19/10 A2997 RMK A01 T01930096  RH  055%=      5-min Rain = 0
KJTS 092115Z 03008KT 19/09 A2996 RMK A01 T01910093  RH  055%=      5-min Rain = 0
KJTS 092120Z 02008KT 19/09 A2996 RMK A01 T01900094  RH  055%=      5-min Rain = 0
KJTS 092125Z 04008G13KT 19/09 A2996 RMK A01 T01890093  RH  055%=      5-min Rain = 0
KJTS 092130Z 04008KT 19/09 A2996 RMK A01 T01880094  RH  056%=      5-min Rain = 0
KJTS 092135Z 04008G13KT 19/10 A2996 RMK A01 T01880095  RH  057%=      5-min Rain = 0
KJTS 092140Z 03010KT 19/09 A2996 RMK A01 T01870092  RH  056%=      5-min Rain = 0
KJTS 092145Z 04009KT 19/09 A2996 RMK A01 T01860094  RH  057%=      5-min Rain = 0
KJTS 092150Z 03007G12KT 19/10 A2996 RMK A01 T01850097  RH  058%=      5-min Rain = 0
KJTS 092155Z 02009KT 18/10 A2996 RMK A01 T01840097  RH  059%=      5-min Rain = 0
KJTS 092200Z 02008KT 18/10 A2996 RMK A01 T01820097  RH  059%=      5-min Rain = 0
KJTS 092205Z 03008KT 18/10 A2997 RMK A01 T01810097  RH  060%=      5-min Rain = 0
KJTS 092210Z 03008KT 18/10 A2997 RMK A01 T01800097  RH  060%=      5-min Rain = 0
KJTS 092215Z 04008KT 18/10 A2997 RMK A01 T01790098  RH  061%=      5-min Rain = 0
KJTS 092220Z 04007KT 18/10 A2997 RMK A01 T01780099  RH  062%=      5-min Rain = 0
KJTS 092225Z 03007KT 18/10 A2997 RMK A01 T01760101  RH  063%=      5-min Rain = 0
KJTS 092230Z 03006KT 18/10 A2998 RMK A01 T01750103  RH  065%=      5-min Rain = 0
KJTS 092235Z 03008KT 17/11 A2998 RMK A01 T01730106  RH  067%=      5-min Rain = 0
KJTS 092240Z 03007KT 17/11 A2998 RMK A01 T01720109  RH  069%=      5-min Rain = 0
KJTS 092245Z 03007KT 17/11 A2998 RMK A01 T01700111  RH  071%=      5-min Rain = 0
KJTS 092250Z 04007KT 17/11 A2998 RMK A01 T01680112  RH  072%=      5-min Rain = 0
KJTS 092255Z 05007KT 17/11 A2998 RMK A01 T01660114  RH  074%=      5-min Rain = 0
KJTS 092300Z 06007KT 17/11 A2998 RMK A01 T01650113  RH  074%=      5-min Rain = 0
KJTS 092305Z 06007KT 16/12 A2998 RMK A01 T01640115  RH  076%=      5-min Rain = 0
KJTS 092310Z 06007KT 16/12 A2998 RMK A01 T01630117  RH  077%=      5-min Rain = 0
KJTS 092315Z 07006KT 16/12 A2998 RMK A01 T01640118  RH  077%=      5-min Rain = 0
KJTS 092320Z 06007KT 16/12 A2998 RMK A01 T01640117  RH  076%=      5-min Rain = 0
KJTS 092325Z 06008KT 16/11 A2998 RMK A01 T01640114  RH  075%=      5-min Rain = 0
KJTS 092330Z 05007KT 16/11 A2998 RMK A01 T01640113  RH  074%=      5-min Rain = 0
KJTS 092335Z 06006KT 17/11 A2998 RMK A01 T01660112  RH  073%=      5-min Rain = 0
KJTS 092340Z 05008G13KT 17/11 A2998 RMK A01 T01660111  RH  073%=      5-min Rain = 0
KJTS 092345Z 04008KT 17/11 A2998 RMK A01 T01660111  RH  072%=      5-min Rain = 0
KJTS 092350Z 05008KT 17/11 A2998 RMK A01 T01660111  RH  072%=      5-min Rain = 0
KJTS 092355Z 05009KT 17/11 A2998 RMK A01 T01660106  RH  070%=      5-min Rain = 0
KJTS 100000Z 05009KT 17/10 A2998 RMK A01 T01650103  RH  069%=      5-min Rain = 0
KJTS 100005Z 06008KT 16/10 A2998 RMK A01 T01630103  RH  070%=      5-min Rain = 0
KJTS 100010Z 06008KT 16/10 A2997 RMK A01 T01630102  RH  070%=      5-min Rain = 0
KJTS 100015Z 05008KT 16/10 A2997 RMK A01 T01620102  RH  070%=      5-min Rain = 0
KJTS 100020Z 05008KT 16/10 A2997 RMK A01 T01620103  RH  070%=      5-min Rain = 0
KJTS 100025Z 06007KT 16/10 A2997 RMK A01 T01610104  RH  071%=      5-min Rain = 0
KJTS 100030Z 06008KT 16/10 A2997 RMK A01 T01590104  RH  072%=      5-min Rain = 0
KJTS 100035Z 07008KT 16/10 A2997 RMK A01 T01580104  RH  073%=      5-min Rain = 0
KJTS 100040Z 07007KT 16/10 A2997 RMK A01 T01570104  RH  073%=      5-min Rain = 0
KJTS 100045Z 08008KT 16/10 A2996 RMK A01 T01580103  RH  072%=      5-min Rain = 0
KJTS 100050Z 08007KT 16/10 A2996 RMK A01 T01580103  RH  072%=      5-min Rain = 0
KJTS 100055Z 08007KT 16/10 A2996 RMK A01 T01580103  RH  072%=      5-min Rain = 0
KJTS 100100Z 07007KT 16/10 A2997 RMK A01 T01570103  RH  073%=      5-min Rain = 0
KJTS 100105Z 06007KT 16/10 A2997 RMK A01 T01570102  RH  072%=      5-min Rain = 0
KJTS 100110Z 05005KT 16/10 A2997 RMK A01 T01570102  RH  072%=      5-min Rain = 0
KJTS 100115Z 05005KT 16/10 A2997 RMK A01 T01570103  RH  073%=      5-min Rain = 0
KJTS 100120Z 05004KT 16/10 A2997 RMK A01 T01560103  RH  073%=      5-min Rain = 0
KJTS 100125Z 05005KT 16/10 A2997 RMK A01 T01560103  RH  073%=      5-min Rain = 0
KJTS 100130Z 06005KT 15/10 A2997 RMK A01 T01540104  RH  074%=      5-min Rain = 0
KJTS 100135Z 06004KT 15/10 A2997 RMK A01 T01540104  RH  075%=      5-min Rain = 0
KJTS 100140Z 06003KT 15/10 A2997 RMK A01 T01530103  RH  074%=      5-min Rain = 0
KJTS 100145Z 06003KT 15/10 A2998 RMK A01 T01530103  RH  074%=      5-min Rain = 0
KJTS 100150Z 04003KT 15/10 A2998 RMK A01 T01530103  RH  075%=      5-min Rain = 0
KJTS 100155Z 36004KT 15/11 A2998 RMK A01 T01500106  RH  078%=      5-min Rain = 0
KJTS 100200Z 34005KT 15/11 A2999 RMK A01 T01470108  RH  080%=      5-min Rain = 0
KJTS 100205Z 35006KT 15/11 A30 RMK A01 T01470106  RH  079%=      5-min Rain = 0
KJTS 100210Z 00004KT 15/10 A30 RMK A01 T01500103  RH  076%=      5-min Rain = 0
KJTS 100215Z 00003KT 15/10 A30 RMK A01 T01490102  RH  076%=      5-min Rain = 0
KJTS 100220Z 01002KT 15/10 A30 RMK A01 T01490101  RH  076%=      5-min Rain = 0
KJTS 100225Z 01002KT 15/10 A3001 RMK A01 T01490101  RH  075%=      5-min Rain = 0
KJTS 100230Z 01003KT 15/10 A3001 RMK A01 T01490101  RH  075%=      5-min Rain = 0
KJTS 100235Z 01004KT 15/10 A3001 RMK A01 T01470101  RH  076%=      5-min Rain = 0
KJTS 100240Z 01004KT 14/10 A3001 RMK A01 T01440099  RH  077%=      5-min Rain = 0
KJTS 100245Z 35004KT 14/10 A3001 RMK A01 T01390099  RH  079%=      5-min Rain = 0
KJTS 100250Z 36004KT 14/10 A3002 RMK A01 T01370098  RH  080%=      5-min Rain = 0
KJTS 100255Z 35003KT 14/10 A3002 RMK A01 T01380097  RH  079%=      5-min Rain = 0
KJTS 100300Z 34003KT 14/10 A3003 RMK A01 T01360096  RH  079%=      5-min Rain = 0
KJTS 100305Z 32005KT 13/09 A3003 RMK A01 T01320093  RH  080%=      5-min Rain = 0
KJTS 100310Z 34005KT 13/09 A3003 RMK A01 T01260092  RH  083%=      5-min Rain = 0
KJTS 100315Z 35006KT 13/09 A3004 RMK A01 T01280093  RH  081%=      5-min Rain = 0
KJTS 100320Z 34006KT 13/09 A3004 RMK A01 T01290092  RH  081%=      5-min Rain = 0
KJTS 100325Z 35005KT 13/09 A3004 RMK A01 T01270092  RH  081%=      5-min Rain = 0
KJTS 100330Z 36005KT 13/09 A3004 RMK A01 T01280091  RH  080%=      5-min Rain = 0
KJTS 100335Z 36005KT 13/09 A3005 RMK A01 T01270090  RH  080%=      5-min Rain = 0
KJTS 100340Z 35004KT 13/09 A3005 RMK A01 T01250089  RH  081%=      5-min Rain = 0
KJTS 100345Z 36004KT 13/09 A3004 RMK A01 T01270090  RH  081%=      5-min Rain = 0
KJTS 100350Z 01004KT 13/09 A3004 RMK A01 T01270090  RH  080%=      5-min Rain = 0
KJTS 100355Z 02005KT 13/09 A3004 RMK A01 T01290090  RH  079%=      5-min Rain = 0
KJTS 100400Z 02005KT 13/09 A3004 RMK A01 T01290089  RH  079%=      5-min Rain = 0
KJTS 100405Z 02006KT 13/09 A3005 RMK A01 T01320090  RH  078%=      5-min Rain = 0
KJTS 100410Z 02006KT 13/09 A3005 RMK A01 T01320089  RH  078%=      5-min Rain = 0
KJTS 100415Z 02007KT 13/09 A3005 RMK A01 T01320088  RH  077%=      5-min Rain = 0
KJTS 100420Z 03007KT 13/09 A3005 RMK A01 T01340088  RH  076%=      5-min Rain = 0
KJTS 100425Z 02006KT 13/09 A3006 RMK A01 T01310087  RH  077%=      5-min Rain = 0
KJTS 100430Z 02006KT 13/09 A3006 RMK A01 T01280087  RH  079%=      5-min Rain = 0
KJTS 100435Z 02007KT 13/09 A3006 RMK A01 T01260086  RH  079%=      5-min Rain = 0
KJTS 100440Z 03007KT 13/08 A3007 RMK A01 T01250084  RH  078%=      5-min Rain = 0
KJTS 100445Z 04008KT 13/08 A3007 RMK A01 T01250080  RH  076%=      5-min Rain = 0
KJTS 100450Z 04008KT 12/08 A3007 RMK A01 T01240077  RH  075%=      5-min Rain = 0
KJTS 100455Z 03008KT 12/08 A3007 RMK A01 T01230075  RH  074%=      5-min Rain = 0

Page generated in 0.0405 seconds.